sensor_id;sensor_type;location;lat;lon;timestamp;pressure;altitude;pressure_sealevel;temperature;humidity
58473;BME280;44775;51.564;5.460;2023-12-20T00:00:38;101328.22;;;6.05;100.00
58473;BME280;44775;51.564;5.460;2023-12-20T00:03:04;101322.50;;;5.77;100.00
58473;BME280;44775;51.564;5.460;2023-12-20T00:05:29;101338.31;;;5.67;100.00
58473;BME280;44775;51.564;5.460;2023-12-20T00:07:57;101326.66;;;5.48;100.00
58473;BME280;44775;51.564;5.460;2023-12-20T00:10:22;101346.56;;;5.42;100.00
58473;BME280;44775;51.564;5.460;2023-12-20T00:12:47;101346.94;;;5.37;100.00
58473;BME280;44775;51.564;5.460;2023-12-20T00:15:13;101336.50;;;5.57;100.00
58473;BME280;44775;51.564;5.460;2023-12-20T00:17:38;101340.69;;;5.27;100.00
58473;BME280;44775;51.564;5.460;2023-12-20T00:20:04;101338.00;;;5.38;100.00
58473;BME280;44775;51.564;5.460;2023-12-20T00:22:30;101351.63;;;5.22;100.00
58473;BME280;44775;51.564;5.460;2023-12-20T00:24:55;101338.75;;;5.18;100.00
58473;BME280;44775;51.564;5.460;2023-12-20T00:27:21;101335.38;;;5.16;100.00
58473;BME280;44775;51.564;5.460;2023-12-20T00:29:46;101336.34;;;5.15;100.00
58473;BME280;44775;51.564;5.460;2023-12-20T00:32:14;101336.13;;;5.07;100.00
58473;BME280;44775;51.564;5.460;2023-12-20T00:34:40;101330.31;;;5.13;100.00
58473;BME280;44775;51.564;5.460;2023-12-20T00:37:05;101342.50;;;5.04;100.00
58473;BME280;44775;51.564;5.460;2023-12-20T00:39:31;101327.56;;;4.92;100.00
58473;BME280;44775;51.564;5.460;2023-12-20T00:41:56;101329.59;;;4.77;100.00
58473;BME280;44775;51.564;5.460;2023-12-20T00:44:21;101325.16;;;4.89;100.00
58473;BME280;44775;51.564;5.460;2023-12-20T00:46:47;101317.81;;;4.70;100.00
58473;BME280;44775;51.564;5.460;2023-12-20T00:49:12;101325.16;;;4.66;100.00
58473;BME280;44775;51.564;5.460;2023-12-20T00:51:37;101323.44;;;4.54;100.00
58473;BME280;44775;51.564;5.460;2023-12-20T00:54:02;101307.66;;;4.41;100.00
58473;BME280;44775;51.564;5.460;2023-12-20T00:56:28;101316.41;;;4.42;100.00
58473;BME280;44775;51.564;5.460;2023-12-20T00:58:53;101313.75;;;4.31;100.00
58473;BME280;44775;51.564;5.460;2023-12-20T01:01:18;101311.72;;;4.23;100.00
58473;BME280;44775;51.564;5.460;2023-12-20T01:03:43;101328.56;;;4.22;100.00
58473;BME280;44775;51.564;5.460;2023-12-20T01:06:09;101322.28;;;4.23;100.00
58473;BME280;44775;51.564;5.460;2023-12-20T01:08:34;101325.31;;;4.30;100.00
58473;BME280;44775;51.564;5.460;2023-12-20T01:11:00;101320.34;;;4.25;100.00
58473;BME280;44775;51.564;5.460;2023-12-20T01:13:25;101319.72;;;4.10;100.00
58473;BME280;44775;51.564;5.460;2023-12-20T01:15:50;101329.22;;;4.13;100.00
58473;BME280;44775;51.564;5.460;2023-12-20T01:18:16;101330.75;;;4.04;100.00
58473;BME280;44775;51.564;5.460;2023-12-20T01:20:41;101328.84;;;4.06;100.00
58473;BME280;44775;51.564;5.460;2023-12-20T01:23:06;101334.63;;;4.11;100.00
58473;BME280;44775;51.564;5.460;2023-12-20T01:25:31;101342.72;;;4.21;100.00
58473;BME280;44775;51.564;5.460;2023-12-20T01:27:57;101331.28;;;4.20;100.00
58473;BME280;44775;51.564;5.460;2023-12-20T01:30:22;101335.28;;;4.26;100.00
58473;BME280;44775;51.564;5.460;2023-12-20T01:32:47;101327.34;;;4.26;100.00
58473;BME280;44775;51.564;5.460;2023-12-20T01:35:13;101335.44;;;4.36;100.00
58473;BME280;44775;51.564;5.460;2023-12-20T01:37:38;101328.66;;;4.32;100.00
58473;BME280;44775;51.564;5.460;2023-12-20T01:40:04;101335.53;;;4.34;100.00
58473;BME280;44775;51.564;5.460;2023-12-20T01:42:29;101337.13;;;4.37;100.00
58473;BME280;44775;51.564;5.460;2023-12-20T01:44:55;101333.66;;;4.47;100.00
58473;BME280;44775;51.564;5.460;2023-12-20T01:47:21;101330.06;;;4.60;100.00
58473;BME280;44775;51.564;5.460;2023-12-20T01:49:48;101330.25;;;4.45;100.00
58473;BME280;44775;51.564;5.460;2023-12-20T01:52:13;101318.59;;;4.37;100.00
58473;BME280;44775;51.564;5.460;2023-12-20T01:54:40;101331.22;;;4.33;100.00
58473;BME280;44775;51.564;5.460;2023-12-20T01:57:06;101328.19;;;4.26;100.00
58473;BME280;44775;51.564;5.460;2023-12-20T01:59:32;101332.56;;;4.39;100.00
58473;BME280;44775;51.564;5.460;2023-12-20T02:01:58;101322.53;;;4.31;100.00
58473;BME280;44775;51.564;5.460;2023-12-20T02:04:24;101330.97;;;4.36;100.00
58473;BME280;44775;51.564;5.460;2023-12-20T02:06:52;101321.97;;;4.39;100.00
58473;BME280;44775;51.564;5.460;2023-12-20T02:09:18;101321.59;;;4.32;100.00
58473;BME280;44775;51.564;5.460;2023-12-20T02:11:43;101332.06;;;4.34;100.00
58473;BME280;44775;51.564;5.460;2023-12-20T02:14:09;101325.41;;;4.28;100.00
58473;BME280;44775;51.564;5.460;2023-12-20T02:16:34;101338.09;;;4.36;100.00
58473;BME280;44775;51.564;5.460;2023-12-20T02:18:59;101333.59;;;4.25;100.00
58473;BME280;44775;51.564;5.460;2023-12-20T02:21:26;101327.97;;;4.41;100.00
58473;BME280;44775;51.564;5.460;2023-12-20T02:23:56;101318.19;;;4.19;100.00
58473;BME280;44775;51.564;5.460;2023-12-20T02:26:21;101323.81;;;4.14;100.00
58473;BME280;44775;51.564;5.460;2023-12-20T02:28:47;101321.56;;;4.21;100.00
58473;BME280;44775;51.564;5.460;2023-12-20T02:31:12;101315.56;;;4.19;100.00
58473;BME280;44775;51.564;5.460;2023-12-20T02:33:37;101327.84;;;4.31;100.00
58473;BME280;44775;51.564;5.460;2023-12-20T02:36:06;101335.06;;;4.29;100.00
58473;BME280;44775;51.564;5.460;2023-12-20T02:38:31;101331.31;;;4.32;100.00
58473;BME280;44775;51.564;5.460;2023-12-20T02:40:56;101331.69;;;4.38;100.00
58473;BME280;44775;51.564;5.460;2023-12-20T02:43:21;101328.44;;;4.35;100.00
58473;BME280;44775;51.564;5.460;2023-12-20T02:45:47;101325.56;;;4.38;100.00
58473;BME280;44775;51.564;5.460;2023-12-20T02:48:12;101323.28;;;4.44;100.00
58473;BME280;44775;51.564;5.460;2023-12-20T02:50:37;101312.25;;;4.50;100.00
58473;BME280;44775;51.564;5.460;2023-12-20T02:53:03;101329.19;;;4.48;100.00
58473;BME280;44775;51.564;5.460;2023-12-20T02:55:28;101330.25;;;4.45;100.00
58473;BME280;44775;51.564;5.460;2023-12-20T02:57:53;101319.69;;;4.45;100.00
58473;BME280;44775;51.564;5.460;2023-12-20T03:00:19;101321.16;;;4.49;100.00
58473;BME280;44775;51.564;5.460;2023-12-20T03:02:44;101312.94;;;4.41;100.00
58473;BME280;44775;51.564;5.460;2023-12-20T03:05:09;101322.97;;;4.49;100.00
58473;BME280;44775;51.564;5.460;2023-12-20T03:07:36;101326.31;;;4.62;100.00
58473;BME280;44775;51.564;5.460;2023-12-20T03:10:02;101320.19;;;4.62;100.00
58473;BME280;44775;51.564;5.460;2023-12-20T03:12:28;101317.53;;;4.62;100.00
58473;BME280;44775;51.564;5.460;2023-12-20T03:14:53;101321.75;;;4.76;100.00
58473;BME280;44775;51.564;5.460;2023-12-20T03:17:18;101302.53;;;4.73;100.00
58473;BME280;44775;51.564;5.460;2023-12-20T03:19:44;101295.56;;;4.72;100.00
58473;BME280;44775;51.564;5.460;2023-12-20T03:22:09;101303.00;;;4.67;100.00
58473;BME280;44775;51.564;5.460;2023-12-20T03:24:35;101297.72;;;4.67;100.00
58473;BME280;44775;51.564;5.460;2023-12-20T03:27:00;101299.75;;;4.75;100.00
58473;BME280;44775;51.564;5.460;2023-12-20T03:29:26;101298.78;;;4.65;100.00
58473;BME280;44775;51.564;5.460;2023-12-20T03:31:51;101290.38;;;4.60;100.00
58473;BME280;44775;51.564;5.460;2023-12-20T03:34:16;101287.81;;;4.47;100.00
58473;BME280;44775;51.564;5.460;2023-12-20T03:36:41;101297.09;;;4.53;100.00
58473;BME280;44775;51.564;5.460;2023-12-20T03:39:07;101291.44;;;4.46;100.00
58473;BME280;44775;51.564;5.460;2023-12-20T03:41:32;101306.94;;;4.50;100.00
58473;BME280;44775;51.564;5.460;2023-12-20T03:43:58;101299.25;;;4.47;100.00
58473;BME280;44775;51.564;5.460;2023-12-20T03:46:23;101306.47;;;4.57;100.00
58473;BME280;44775;51.564;5.460;2023-12-20T03:48:48;101282.28;;;4.50;100.00
58473;BME280;44775;51.564;5.460;2023-12-20T03:51:14;101297.56;;;4.58;100.00
58473;BME280;44775;51.564;5.460;2023-12-20T03:53:39;101309.59;;;4.62;100.00
58473;BME280;44775;51.564;5.460;2023-12-20T03:56:06;101285.19;;;4.58;100.00
58473;BME280;44775;51.564;5.460;2023-12-20T03:58:31;101291.81;;;4.75;100.00
58473;BME280;44775;51.564;5.460;2023-12-20T04:00:56;101289.88;;;4.77;100.00
58473;BME280;44775;51.564;5.460;2023-12-20T04:03:21;101299.50;;;4.78;100.00
58473;BME280;44775;51.564;5.460;2023-12-20T04:05:47;101282.78;;;4.78;100.00
58473;BME280;44775;51.564;5.460;2023-12-20T04:08:12;101281.47;;;4.83;100.00
58473;BME280;44775;51.564;5.460;2023-12-20T04:10:37;101293.03;;;4.93;100.00
58473;BME280;44775;51.564;5.460;2023-12-20T04:13:03;101285.91;;;4.94;100.00
58473;BME280;44775;51.564;5.460;2023-12-20T04:15:29;101287.97;;;4.90;100.00
58473;BME280;44775;51.564;5.460;2023-12-20T04:17:54;101293.97;;;4.92;100.00
58473;BME280;44775;51.564;5.460;2023-12-20T04:20:19;101296.13;;;4.98;100.00
58473;BME280;44775;51.564;5.460;2023-12-20T04:22:45;101302.63;;;5.06;100.00
58473;BME280;44775;51.564;5.460;2023-12-20T04:25:10;101305.16;;;5.07;100.00
58473;BME280;44775;51.564;5.460;2023-12-20T04:27:35;101293.50;;;5.10;100.00
58473;BME280;44775;51.564;5.460;2023-12-20T04:30:00;101292.53;;;5.11;100.00
58473;BME280;44775;51.564;5.460;2023-12-20T04:32:26;101306.47;;;5.13;100.00
58473;BME280;44775;51.564;5.460;2023-12-20T04:34:51;101297.09;;;5.09;100.00
58473;BME280;44775;51.564;5.460;2023-12-20T04:37:16;101284.69;;;5.20;100.00
58473;BME280;44775;51.564;5.460;2023-12-20T04:39:42;101296.38;;;5.18;100.00
58473;BME280;44775;51.564;5.460;2023-12-20T04:42:07;101300.19;;;5.25;100.00
58473;BME280;44775;51.564;5.460;2023-12-20T04:44:32;101289.22;;;5.30;100.00
58473;BME280;44775;51.564;5.460;2023-12-20T04:46:58;101284.53;;;5.33;100.00
58473;BME280;44775;51.564;5.460;2023-12-20T04:49:23;101276.47;;;5.35;100.00
58473;BME280;44775;51.564;5.460;2023-12-20T04:51:48;101287.19;;;5.33;100.00
58473;BME280;44775;51.564;5.460;2023-12-20T04:54:14;101300.69;;;5.30;100.00
58473;BME280;44775;51.564;5.460;2023-12-20T04:56:39;101295.16;;;5.33;100.00
58473;BME280;44775;51.564;5.460;2023-12-20T04:59:05;101291.53;;;5.34;100.00
58473;BME280;44775;51.564;5.460;2023-12-20T05:01:30;101295.69;;;5.48;100.00
58473;BME280;44775;51.564;5.460;2023-12-20T05:03:56;101292.56;;;5.43;100.00
58473;BME280;44775;51.564;5.460;2023-12-20T05:06:21;101284.25;;;5.48;100.00
58473;BME280;44775;51.564;5.460;2023-12-20T05:08:46;101287.16;;;5.44;100.00
58473;BME280;44775;51.564;5.460;2023-12-20T05:11:12;101285.22;;;5.47;100.00
58473;BME280;44775;51.564;5.460;2023-12-20T05:13:39;101272.34;;;5.42;100.00
58473;BME280;44775;51.564;5.460;2023-12-20T05:16:04;101279.31;;;5.54;100.00
58473;BME280;44775;51.564;5.460;2023-12-20T05:18:30;101275.59;;;5.45;100.00
58473;BME280;44775;51.564;5.460;2023-12-20T05:20:55;101280.78;;;5.47;100.00
58473;BME280;44775;51.564;5.460;2023-12-20T05:23:21;101278.47;;;5.42;100.00
58473;BME280;44775;51.564;5.460;2023-12-20T05:25:46;101287.84;;;5.47;100.00
58473;BME280;44775;51.564;5.460;2023-12-20T05:28:11;101291.34;;;5.58;100.00
58473;BME280;44775;51.564;5.460;2023-12-20T05:30:37;101291.44;;;5.57;100.00
58473;BME280;44775;51.564;5.460;2023-12-20T05:33:02;101287.59;;;5.61;100.00
58473;BME280;44775;51.564;5.460;2023-12-20T05:35:27;101282.66;;;5.56;100.00
58473;BME280;44775;51.564;5.460;2023-12-20T05:37:53;101273.03;;;5.55;100.00
58473;BME280;44775;51.564;5.460;2023-12-20T05:40:18;101273.38;;;5.62;100.00
58473;BME280;44775;51.564;5.460;2023-12-20T05:42:43;101269.53;;;5.55;100.00
58473;BME280;44775;51.564;5.460;2023-12-20T05:45:09;101279.16;;;5.56;100.00
58473;BME280;44775;51.564;5.460;2023-12-20T05:47:34;101283.78;;;5.54;100.00
58473;BME280;44775;51.564;5.460;2023-12-20T05:49:59;101279.66;;;5.50;100.00
58473;BME280;44775;51.564;5.460;2023-12-20T05:52:25;101284.75;;;5.41;100.00
58473;BME280;44775;51.564;5.460;2023-12-20T05:54:50;101295.47;;;5.40;100.00
58473;BME280;44775;51.564;5.460;2023-12-20T05:57:15;101297.56;;;5.25;100.00
58473;BME280;44775;51.564;5.460;2023-12-20T05:59:41;101287.53;;;5.29;100.00
58473;BME280;44775;51.564;5.460;2023-12-20T06:02:06;101310.34;;;5.20;100.00
58473;BME280;44775;51.564;5.460;2023-12-20T06:04:31;101313.84;;;5.20;100.00
58473;BME280;44775;51.564;5.460;2023-12-20T06:06:57;101303.75;;;5.03;100.00
58473;BME280;44775;51.564;5.460;2023-12-20T06:09:22;101311.53;;;5.05;100.00
58473;BME280;44775;51.564;5.460;2023-12-20T06:11:47;101314.34;;;5.03;100.00
58473;BME280;44775;51.564;5.460;2023-12-20T06:14:13;101307.31;;;5.02;100.00
58473;BME280;44775;51.564;5.460;2023-12-20T06:16:38;101304.56;;;5.04;100.00
58473;BME280;44775;51.564;5.460;2023-12-20T06:19:03;101307.69;;;5.09;100.00
58473;BME280;44775;51.564;5.460;2023-12-20T06:21:29;101305.78;;;5.11;100.00
58473;BME280;44775;51.564;5.460;2023-12-20T06:23:54;101300.47;;;5.11;100.00
58473;BME280;44775;51.564;5.460;2023-12-20T06:26:20;101307.19;;;5.15;100.00
58473;BME280;44775;51.564;5.460;2023-12-20T06:28:45;101314.78;;;5.08;100.00
58473;BME280;44775;51.564;5.460;2023-12-20T06:31:10;101300.22;;;5.14;100.00
58473;BME280;44775;51.564;5.460;2023-12-20T06:33:36;101303.38;;;4.96;100.00
58473;BME280;44775;51.564;5.460;2023-12-20T06:36:01;101308.69;;;4.96;100.00
58473;BME280;44775;51.564;5.460;2023-12-20T06:38:26;101302.75;;;5.04;100.00
58473;BME280;44775;51.564;5.460;2023-12-20T06:40:52;101303.38;;;4.96;100.00
58473;BME280;44775;51.564;5.460;2023-12-20T06:43:17;101303.84;;;4.90;100.00
58473;BME280;44775;51.564;5.460;2023-12-20T06:45:43;101300.00;;;4.94;100.00
58473;BME280;44775;51.564;5.460;2023-12-20T06:48:08;101298.91;;;4.97;100.00
58473;BME280;44775;51.564;5.460;2023-12-20T06:50:36;101302.41;;;4.97;100.00
58473;BME280;44775;51.564;5.460;2023-12-20T06:53:05;101309.63;;;4.95;100.00
58473;BME280;44775;51.564;5.460;2023-12-20T06:55:32;101300.00;;;4.94;100.00
58473;BME280;44775;51.564;5.460;2023-12-20T06:57:57;101295.53;;;4.95;100.00
58473;BME280;44775;51.564;5.460;2023-12-20T07:00:23;101302.28;;;4.99;100.00
58473;BME280;44775;51.564;5.460;2023-12-20T07:02:48;101295.31;;;4.87;100.00
58473;BME280;44775;51.564;5.460;2023-12-20T07:05:16;101298.78;;;4.87;100.00
58473;BME280;44775;51.564;5.460;2023-12-20T07:07:41;101296.00;;;4.89;100.00
58473;BME280;44775;51.564;5.460;2023-12-20T07:10:07;101287.47;;;4.85;100.00
58473;BME280;44775;51.564;5.460;2023-12-20T07:12:33;101291.47;;;4.80;100.00
58473;BME280;44775;51.564;5.460;2023-12-20T07:14:58;101298.56;;;4.90;100.00
58473;BME280;44775;51.564;5.460;2023-12-20T07:17:23;101300.38;;;4.90;100.00
58473;BME280;44775;51.564;5.460;2023-12-20T07:19:48;101297.81;;;4.88;100.00
58473;BME280;44775;51.564;5.460;2023-12-20T07:22:14;101289.78;;;4.90;100.00
58473;BME280;44775;51.564;5.460;2023-12-20T07:24:39;101291.69;;;4.88;100.00
58473;BME280;44775;51.564;5.460;2023-12-20T07:27:04;101297.72;;;4.90;100.00
58473;BME280;44775;51.564;5.460;2023-12-20T07:29:30;101300.72;;;4.85;100.00
58473;BME280;44775;51.564;5.460;2023-12-20T07:31:55;101294.94;;;4.91;100.00
58473;BME280;44775;51.564;5.460;2023-12-20T07:34:20;101304.81;;;4.89;100.00
58473;BME280;44775;51.564;5.460;2023-12-20T07:36:46;101297.13;;;4.86;100.00
58473;BME280;44775;51.564;5.460;2023-12-20T07:39:12;101299.84;;;4.96;100.00
58473;BME280;44775;51.564;5.460;2023-12-20T07:41:37;101295.19;;;4.88;100.00
58473;BME280;44775;51.564;5.460;2023-12-20T07:44:04;101288.44;;;4.95;100.00
58473;BME280;44775;51.564;5.460;2023-12-20T07:46:29;101287.00;;;4.91;100.00
58473;BME280;44775;51.564;5.460;2023-12-20T07:48:54;101288.31;;;4.97;100.00
58473;BME280;44775;51.564;5.460;2023-12-20T07:51:20;101297.84;;;5.00;100.00
58473;BME280;44775;51.564;5.460;2023-12-20T07:53:46;101288.44;;;4.95;100.00
58473;BME280;44775;51.564;5.460;2023-12-20T07:56:16;101297.56;;;5.03;100.00
58473;BME280;44775;51.564;5.460;2023-12-20T07:58:41;101295.06;;;5.01;100.00
58473;BME280;44775;51.564;5.460;2023-12-20T08:01:06;101294.47;;;4.97;100.00
58473;BME280;44775;51.564;5.460;2023-12-20T08:03:32;101294.81;;;5.04;100.00
58473;BME280;44775;51.564;5.460;2023-12-20T08:05:57;101305.28;;;5.06;100.00
58473;BME280;44775;51.564;5.460;2023-12-20T08:08:24;101302.16;;;5.12;100.00
58473;BME280;44775;51.564;5.460;2023-12-20T08:10:49;101297.59;;;5.14;100.00
58473;BME280;44775;51.564;5.460;2023-12-20T08:13:15;101287.09;;;5.12;100.00
58473;BME280;44775;51.564;5.460;2023-12-20T08:15:40;101294.69;;;5.17;100.00
58473;BME280;44775;51.564;5.460;2023-12-20T08:18:06;101284.53;;;5.22;100.00
58473;BME280;44775;51.564;5.460;2023-12-20T08:20:31;101295.84;;;5.35;100.00
58473;BME280;44775;51.564;5.460;2023-12-20T08:22:56;101310.78;;;5.36;100.00
58473;BME280;44775;51.564;5.460;2023-12-20T08:25:22;101312.59;;;5.36;100.00
58473;BME280;44775;51.564;5.460;2023-12-20T08:27:47;101317.00;;;5.47;100.00
58473;BME280;44775;51.564;5.460;2023-12-20T08:30:12;101315.22;;;5.47;100.00
58473;BME280;44775;51.564;5.460;2023-12-20T08:32:38;101311.22;;;5.53;100.00
58473;BME280;44775;51.564;5.460;2023-12-20T08:35:03;101316.03;;;5.59;100.00
58473;BME280;44775;51.564;5.460;2023-12-20T08:37:29;101318.91;;;5.67;100.00
58473;BME280;44775;51.564;5.460;2023-12-20T08:39:55;101316.38;;;5.65;100.00
58473;BME280;44775;51.564;5.460;2023-12-20T08:42:21;101308.31;;;5.67;100.00
58473;BME280;44775;51.564;5.460;2023-12-20T08:44:46;101306.34;;;5.69;100.00
58473;BME280;44775;51.564;5.460;2023-12-20T08:47:11;101305.97;;;5.74;100.00
58473;BME280;44775;51.564;5.460;2023-12-20T08:49:38;101295.69;;;5.80;100.00
58473;BME280;44775;51.564;5.460;2023-12-20T08:52:04;101294.53;;;5.73;100.00
58473;BME280;44775;51.564;5.460;2023-12-20T08:54:30;101297.06;;;5.75;100.00
58473;BME280;44775;51.564;5.460;2023-12-20T08:56:55;101296.44;;;5.82;100.00
58473;BME280;44775;51.564;5.460;2023-12-20T08:59:20;101280.75;;;5.79;100.00
58473;BME280;44775;51.564;5.460;2023-12-20T09:01:46;101259.69;;;5.78;100.00
58473;BME280;44775;51.564;5.460;2023-12-20T09:04:13;101282.78;;;5.87;100.00
58473;BME280;44775;51.564;5.460;2023-12-20T09:06:38;101276.44;;;5.78;100.00
58473;BME280;44775;51.564;5.460;2023-12-20T09:09:03;101288.03;;;5.77;100.00
58473;BME280;44775;51.564;5.460;2023-12-20T09:11:29;101284.06;;;5.72;100.00
58473;BME280;44775;51.564;5.460;2023-12-20T09:13:54;101262.69;;;5.84;100.00
58473;BME280;44775;51.564;5.460;2023-12-20T09:16:19;101280.25;;;5.85;100.00
58473;BME280;44775;51.564;5.460;2023-12-20T09:18:46;101287.72;;;5.91;100.00
58473;BME280;44775;51.564;5.460;2023-12-20T09:21:11;101290.88;;;5.85;100.00
58473;BME280;44775;51.564;5.460;2023-12-20T09:23:37;101288.94;;;5.87;100.00
58473;BME280;44775;51.564;5.460;2023-12-20T09:26:03;101284.84;;;5.83;100.00
58473;BME280;44775;51.564;5.460;2023-12-20T09:28:29;101286.88;;;5.91;100.00
58473;BME280;44775;51.564;5.460;2023-12-20T09:30:54;101295.94;;;5.88;100.00
58473;BME280;44775;51.564;5.460;2023-12-20T09:33:19;101300.13;;;5.91;100.00
58473;BME280;44775;51.564;5.460;2023-12-20T09:35:44;101296.63;;;5.90;100.00
58473;BME280;44775;51.564;5.460;2023-12-20T09:38:10;101294.84;;;5.91;100.00
58473;BME280;44775;51.564;5.460;2023-12-20T09:40:36;101287.25;;;5.86;100.00
58473;BME280;44775;51.564;5.460;2023-12-20T09:43:11;101288.53;;;6.03;100.00
58473;BME280;44775;51.564;5.460;2023-12-20T09:45:39;101295.13;;;6.09;100.00
58473;BME280;44775;51.564;5.460;2023-12-20T09:48:07;101286.53;;;5.96;100.00
58473;BME280;44775;51.564;5.460;2023-12-20T09:50:32;101290.81;;;6.08;100.00
58473;BME280;44775;51.564;5.460;2023-12-20T09:53:00;101296.81;;;6.10;100.00
58473;BME280;44775;51.564;5.460;2023-12-20T09:55:27;101293.13;;;6.22;100.00
58473;BME280;44775;51.564;5.460;2023-12-20T09:57:55;101293.84;;;6.24;100.00
58473;BME280;44775;51.564;5.460;2023-12-20T10:00:20;101282.38;;;6.24;100.00
58473;BME280;44775;51.564;5.460;2023-12-20T10:02:50;101283.81;;;6.28;100.00
58473;BME280;44775;51.564;5.460;2023-12-20T10:05:29;101289.38;;;6.25;100.00
58473;BME280;44775;51.564;5.460;2023-12-20T10:07:54;101285.59;;;6.27;100.00
58473;BME280;44775;51.564;5.460;2023-12-20T10:10:20;101291.38;;;6.32;100.00
58473;BME280;44775;51.564;5.460;2023-12-20T10:13:05;101284.06;;;6.46;100.00
58473;BME280;44775;51.564;5.460;2023-12-20T10:15:32;101281.94;;;6.39;100.00
58473;BME280;44775;51.564;5.460;2023-12-20T10:17:58;101273.69;;;6.43;100.00
58473;BME280;44775;51.564;5.460;2023-12-20T10:20:24;101273.19;;;6.49;100.00
58473;BME280;44775;51.564;5.460;2023-12-20T10:22:49;101266.09;;;6.59;100.00
58473;BME280;44775;51.564;5.460;2023-12-20T10:25:15;101270.06;;;6.74;100.00
58473;BME280;44775;51.564;5.460;2023-12-20T10:27:41;101277.03;;;6.66;100.00
58473;BME280;44775;51.564;5.460;2023-12-20T10:30:07;101285.94;;;6.85;100.00
58473;BME280;44775;51.564;5.460;2023-12-20T10:32:32;101285.94;;;6.85;100.00
58473;BME280;44775;51.564;5.460;2023-12-20T10:34:58;101280.06;;;6.82;100.00
58473;BME280;44775;51.564;5.460;2023-12-20T10:37:24;101275.88;;;6.89;100.00
58473;BME280;44775;51.564;5.460;2023-12-20T10:39:50;101275.56;;;6.82;100.00
58473;BME280;44775;51.564;5.460;2023-12-20T10:42:22;101273.53;;;6.96;100.00
58473;BME280;44775;51.564;5.460;2023-12-20T10:44:50;101274.75;;;6.82;100.00
58473;BME280;44775;51.564;5.460;2023-12-20T10:47:16;101271.78;;;6.75;100.00
58473;BME280;44775;51.564;5.460;2023-12-20T10:49:42;101248.66;;;6.66;100.00
58473;BME280;44775;51.564;5.460;2023-12-20T10:52:09;101252.88;;;6.69;100.00
58473;BME280;44775;51.564;5.460;2023-12-20T10:54:36;101241.22;;;6.60;100.00
58473;BME280;44775;51.564;5.460;2023-12-20T10:57:05;101242.63;;;6.64;100.00
58473;BME280;44775;51.564;5.460;2023-12-20T10:59:30;101241.16;;;6.81;100.00
58473;BME280;44775;51.564;5.460;2023-12-20T11:01:59;101237.78;;;6.69;100.00
58473;BME280;44775;51.564;5.460;2023-12-20T11:04:35;101240.25;;;6.61;100.00
58473;BME280;44775;51.564;5.460;2023-12-20T11:07:32;101242.88;;;6.82;100.00
58473;BME280;44775;51.564;5.460;2023-12-20T11:10:02;101243.78;;;6.71;100.00
58473;BME280;44775;51.564;5.460;2023-12-20T11:13:02;101246.63;;;6.79;100.00
58473;BME280;44775;51.564;5.460;2023-12-20T11:15:35;101240.44;;;6.69;100.00
58473;BME280;44775;51.564;5.460;2023-12-20T11:18:00;101239.59;;;6.69;100.00
58473;BME280;44775;51.564;5.460;2023-12-20T11:20:39;101226.94;;;6.82;100.00
58473;BME280;44775;51.564;5.460;2023-12-20T11:23:06;101236.06;;;6.68;100.00
58473;BME280;44775;51.564;5.460;2023-12-20T11:25:53;101252.47;;;6.73;100.00
58473;BME280;44775;51.564;5.460;2023-12-20T11:28:23;101233.00;;;6.63;100.00
58473;BME280;44775;51.564;5.460;2023-12-20T11:30:56;101236.22;;;6.67;100.00
58473;BME280;44775;51.564;5.460;2023-12-20T11:33:37;101223.09;;;6.65;100.00
58473;BME280;44775;51.564;5.460;2023-12-20T11:36:03;101220.41;;;6.55;100.00
58473;BME280;44775;51.564;5.460;2023-12-20T11:38:38;101218.13;;;6.51;100.00
58473;BME280;44775;51.564;5.460;2023-12-20T11:41:07;101215.34;;;6.52;100.00
58473;BME280;44775;51.564;5.460;2023-12-20T11:43:35;101212.00;;;6.60;100.00
58473;BME280;44775;51.564;5.460;2023-12-20T11:46:07;101214.38;;;6.53;100.00
58473;BME280;44775;51.564;5.460;2023-12-20T11:48:35;101207.94;;;6.56;100.00
58473;BME280;44775;51.564;5.460;2023-12-20T11:51:01;101212.44;;;6.55;100.00
58473;BME280;44775;51.564;5.460;2023-12-20T11:53:26;101197.59;;;6.53;100.00
58473;BME280;44775;51.564;5.460;2023-12-20T11:55:51;101209.78;;;6.55;100.00
58473;BME280;44775;51.564;5.460;2023-12-20T11:58:16;101213.53;;;6.53;100.00
58473;BME280;44775;51.564;5.460;2023-12-20T12:00:42;101212.81;;;6.51;100.00
58473;BME280;44775;51.564;5.460;2023-12-20T12:03:08;101202.91;;;6.53;100.00
58473;BME280;44775;51.564;5.460;2023-12-20T12:05:34;101196.59;;;6.54;100.00
58473;BME280;44775;51.564;5.460;2023-12-20T12:07:59;101208.63;;;6.48;100.00
58473;BME280;44775;51.564;5.460;2023-12-20T12:10:24;101195.81;;;6.63;100.00
58473;BME280;44775;51.564;5.460;2023-12-20T12:12:50;101188.00;;;6.61;100.00
58473;BME280;44775;51.564;5.460;2023-12-20T12:15:15;101186.56;;;6.57;100.00
58473;BME280;44775;51.564;5.460;2023-12-20T12:17:40;101183.53;;;6.62;100.00
58473;BME280;44775;51.564;5.460;2023-12-20T12:20:07;101187.84;;;6.63;100.00
58473;BME280;44775;51.564;5.460;2023-12-20T12:22:33;101185.63;;;6.68;100.00
58473;BME280;44775;51.564;5.460;2023-12-20T12:24:59;101186.91;;;6.74;100.00
58473;BME280;44775;51.564;5.460;2023-12-20T12:27:34;101185.25;;;6.82;100.00
58473;BME280;44775;51.564;5.460;2023-12-20T12:30:01;101186.94;;;6.83;100.00
58473;BME280;44775;51.564;5.460;2023-12-20T12:32:28;101179.69;;;6.85;100.00
58473;BME280;44775;51.564;5.460;2023-12-20T12:34:53;101164.41;;;6.88;100.00
58473;BME280;44775;51.564;5.460;2023-12-20T12:37:18;101166.81;;;6.91;100.00
58473;BME280;44775;51.564;5.460;2023-12-20T12:39:46;101165.53;;;6.85;100.00
58473;BME280;44775;51.564;5.460;2023-12-20T12:42:11;101171.56;;;6.87;100.00
58473;BME280;44775;51.564;5.460;2023-12-20T12:44:37;101165.44;;;6.96;100.00